sensor_id;sensor_type;location;lat;lon;timestamp;P1;durP1;ratioP1;P2;durP2;ratioP2
54993;SDS011;40891;47.242;8.648;2024-01-06T00:01:59;1.43;;;1.30;;
54993;SDS011;40891;47.242;8.648;2024-01-06T00:04:24;3.60;;;1.70;;
54993;SDS011;40891;47.242;8.648;2024-01-06T00:06:50;1.90;;;1.40;;
54993;SDS011;40891;47.242;8.648;2024-01-06T00:09:15;2.83;;;1.20;;
54993;SDS011;40891;47.242;8.648;2024-01-06T00:11:40;1.30;;;1.10;;
54993;SDS011;40891;47.242;8.648;2024-01-06T00:14:05;1.73;;;1.10;;
54993;SDS011;40891;47.242;8.648;2024-01-06T00:16:31;1.40;;;0.97;;
54993;SDS011;40891;47.242;8.648;2024-01-06T00:18:56;1.43;;;0.93;;
54993;SDS011;40891;47.242;8.648;2024-01-06T00:21:21;2.10;;;0.80;;
54993;SDS011;40891;47.242;8.648;2024-01-06T00:23:46;1.73;;;1.00;;
54993;SDS011;40891;47.242;8.648;2024-01-06T00:26:12;1.33;;;0.90;;
54993;SDS011;40891;47.242;8.648;2024-01-06T00:28:38;1.10;;;1.00;;
54993;SDS011;40891;47.242;8.648;2024-01-06T00:31:04;1.40;;;1.00;;
54993;SDS011;40891;47.242;8.648;2024-01-06T00:33:30;2.73;;;0.80;;
54993;SDS011;40891;47.242;8.648;2024-01-06T00:35:56;1.60;;;1.20;;
54993;SDS011;40891;47.242;8.648;2024-01-06T00:38:21;1.90;;;0.90;;
54993;SDS011;40891;47.242;8.648;2024-01-06T00:40:46;2.40;;;0.90;;
54993;SDS011;40891;47.242;8.648;2024-01-06T00:43:12;1.37;;;0.80;;
54993;SDS011;40891;47.242;8.648;2024-01-06T00:45:37;0.80;;;0.57;;
54993;SDS011;40891;47.242;8.648;2024-01-06T00:48:02;1.83;;;0.73;;
54993;SDS011;40891;47.242;8.648;2024-01-06T00:50:28;2.73;;;1.17;;
54993;SDS011;40891;47.242;8.648;2024-01-06T00:52:53;1.00;;;0.90;;
54993;SDS011;40891;47.242;8.648;2024-01-06T00:55:19;1.20;;;0.93;;
54993;SDS011;40891;47.242;8.648;2024-01-06T00:57:45;2.50;;;0.90;;
54993;SDS011;40891;47.242;8.648;2024-01-06T01:00:10;1.50;;;1.07;;
54993;SDS011;40891;47.242;8.648;2024-01-06T01:02:36;1.50;;;1.10;;
54993;SDS011;40891;47.242;8.648;2024-01-06T01:05:02;1.53;;;1.00;;
54993;SDS011;40891;47.242;8.648;2024-01-06T01:07:27;2.30;;;1.00;;
54993;SDS011;40891;47.242;8.648;2024-01-06T01:09:52;1.53;;;1.03;;
54993;SDS011;40891;47.242;8.648;2024-01-06T01:12:18;1.57;;;1.30;;
54993;SDS011;40891;47.242;8.648;2024-01-06T01:14:43;2.00;;;1.30;;
54993;SDS011;40891;47.242;8.648;2024-01-06T01:17:08;1.73;;;1.40;;
54993;SDS011;40891;47.242;8.648;2024-01-06T01:19:33;2.00;;;1.20;;
54993;SDS011;40891;47.242;8.648;2024-01-06T01:21:59;2.13;;;1.40;;
54993;SDS011;40891;47.242;8.648;2024-01-06T01:24:24;1.43;;;1.30;;
54993;SDS011;40891;47.242;8.648;2024-01-06T01:26:50;1.20;;;0.90;;
54993;SDS011;40891;47.242;8.648;2024-01-06T01:29:16;1.30;;;1.00;;
54993;SDS011;40891;47.242;8.648;2024-01-06T01:31:42;1.13;;;1.00;;
54993;SDS011;40891;47.242;8.648;2024-01-06T01:34:07;1.60;;;1.10;;
54993;SDS011;40891;47.242;8.648;2024-01-06T01:36:32;3.10;;;0.90;;
54993;SDS011;40891;47.242;8.648;2024-01-06T01:38:58;1.00;;;0.80;;
54993;SDS011;40891;47.242;8.648;2024-01-06T01:41:24;0.97;;;0.80;;
54993;SDS011;40891;47.242;8.648;2024-01-06T01:43:49;1.10;;;1.00;;
54993;SDS011;40891;47.242;8.648;2024-01-06T01:46:22;1.03;;;0.93;;
54993;SDS011;40891;47.242;8.648;2024-01-06T01:48:50;1.30;;;0.80;;
54993;SDS011;40891;47.242;8.648;2024-01-06T01:51:15;1.37;;;0.90;;
54993;SDS011;40891;47.242;8.648;2024-01-06T01:53:42;1.10;;;0.70;;
54993;SDS011;40891;47.242;8.648;2024-01-06T01:56:08;0.60;;;0.57;;
54993;SDS011;40891;47.242;8.648;2024-01-06T01:58:33;0.60;;;0.57;;
54993;SDS011;40891;47.242;8.648;2024-01-06T02:00:59;0.60;;;0.60;;
54993;SDS011;40891;47.242;8.648;2024-01-06T02:03:24;0.80;;;0.63;;
54993;SDS011;40891;47.242;8.648;2024-01-06T02:05:50;0.67;;;0.60;;
54993;SDS011;40891;47.242;8.648;2024-01-06T02:08:15;0.83;;;0.60;;
54993;SDS011;40891;47.242;8.648;2024-01-06T02:10:41;1.63;;;0.70;;
54993;SDS011;40891;47.242;8.648;2024-01-06T02:13:07;0.43;;;0.40;;
54993;SDS011;40891;47.242;8.648;2024-01-06T02:15:34;0.60;;;0.50;;
54993;SDS011;40891;47.242;8.648;2024-01-06T02:17:59;0.57;;;0.57;;
54993;SDS011;40891;47.242;8.648;2024-01-06T02:20:24;1.50;;;0.60;;
54993;SDS011;40891;47.242;8.648;2024-01-06T02:22:51;0.40;;;0.40;;
54993;SDS011;40891;47.242;8.648;2024-01-06T02:25:16;1.63;;;0.60;;
54993;SDS011;40891;47.242;8.648;2024-01-06T02:27:43;0.60;;;0.50;;
54993;SDS011;40891;47.242;8.648;2024-01-06T02:30:08;0.73;;;0.63;;
54993;SDS011;40891;47.242;8.648;2024-01-06T02:32:34;0.90;;;0.50;;
54993;SDS011;40891;47.242;8.648;2024-01-06T02:34:59;1.20;;;0.63;;
54993;SDS011;40891;47.242;8.648;2024-01-06T02:37:24;0.70;;;0.60;;
54993;SDS011;40891;47.242;8.648;2024-01-06T02:39:50;0.80;;;0.60;;
54993;SDS011;40891;47.242;8.648;2024-01-06T02:42:16;0.50;;;0.50;;
54993;SDS011;40891;47.242;8.648;2024-01-06T02:44:42;0.43;;;0.37;;
54993;SDS011;40891;47.242;8.648;2024-01-06T02:47:07;0.50;;;0.40;;
54993;SDS011;40891;47.242;8.648;2024-01-06T02:49:32;0.80;;;0.60;;
54993;SDS011;40891;47.242;8.648;2024-01-06T02:51:57;0.63;;;0.57;;
54993;SDS011;40891;47.242;8.648;2024-01-06T02:54:23;0.97;;;0.60;;
54993;SDS011;40891;47.242;8.648;2024-01-06T02:56:48;0.83;;;0.60;;
54993;SDS011;40891;47.242;8.648;2024-01-06T02:59:13;0.50;;;0.50;;
54993;SDS011;40891;47.242;8.648;2024-01-06T03:01:39;0.57;;;0.50;;
54993;SDS011;40891;47.242;8.648;2024-01-06T03:04:04;1.50;;;0.60;;
54993;SDS011;40891;47.242;8.648;2024-01-06T03:06:29;0.70;;;0.53;;
54993;SDS011;40891;47.242;8.648;2024-01-06T03:08:54;0.40;;;0.40;;
54993;SDS011;40891;47.242;8.648;2024-01-06T03:11:20;0.70;;;0.60;;
54993;SDS011;40891;47.242;8.648;2024-01-06T03:13:45;0.60;;;0.60;;
54993;SDS011;40891;47.242;8.648;2024-01-06T03:16:11;0.60;;;0.60;;
54993;SDS011;40891;47.242;8.648;2024-01-06T03:18:36;0.50;;;0.50;;
54993;SDS011;40891;47.242;8.648;2024-01-06T03:21:02;0.97;;;0.70;;
54993;SDS011;40891;47.242;8.648;2024-01-06T03:23:27;0.63;;;0.50;;
54993;SDS011;40891;47.242;8.648;2024-01-06T03:25:52;0.60;;;0.50;;
54993;SDS011;40891;47.242;8.648;2024-01-06T03:28:17;1.07;;;0.57;;
54993;SDS011;40891;47.242;8.648;2024-01-06T03:30:43;2.93;;;0.70;;
54993;SDS011;40891;47.242;8.648;2024-01-06T03:33:08;0.87;;;0.57;;
54993;SDS011;40891;47.242;8.648;2024-01-06T03:35:33;1.13;;;0.80;;
54993;SDS011;40891;47.242;8.648;2024-01-06T03:37:58;0.87;;;0.73;;
54993;SDS011;40891;47.242;8.648;2024-01-06T03:40:24;1.20;;;0.60;;
54993;SDS011;40891;47.242;8.648;2024-01-06T03:42:49;1.43;;;0.60;;
54993;SDS011;40891;47.242;8.648;2024-01-06T03:45:14;0.90;;;0.70;;
54993;SDS011;40891;47.242;8.648;2024-01-06T03:47:40;1.33;;;0.70;;
54993;SDS011;40891;47.242;8.648;2024-01-06T03:50:05;1.30;;;0.97;;
54993;SDS011;40891;47.242;8.648;2024-01-06T03:52:31;1.20;;;0.77;;
54993;SDS011;40891;47.242;8.648;2024-01-06T03:54:56;0.77;;;0.77;;
54993;SDS011;40891;47.242;8.648;2024-01-06T03:57:21;1.00;;;0.80;;
54993;SDS011;40891;47.242;8.648;2024-01-06T03:59:47;1.23;;;0.80;;
54993;SDS011;40891;47.242;8.648;2024-01-06T04:02:12;1.27;;;0.70;;
54993;SDS011;40891;47.242;8.648;2024-01-06T04:04:37;1.03;;;0.87;;
54993;SDS011;40891;47.242;8.648;2024-01-06T04:07:02;2.57;;;1.10;;
54993;SDS011;40891;47.242;8.648;2024-01-06T04:09:28;2.07;;;0.90;;
54993;SDS011;40891;47.242;8.648;2024-01-06T04:11:53;1.10;;;0.90;;
54993;SDS011;40891;47.242;8.648;2024-01-06T04:14:18;1.00;;;0.90;;
54993;SDS011;40891;47.242;8.648;2024-01-06T04:16:44;1.33;;;1.17;;
54993;SDS011;40891;47.242;8.648;2024-01-06T04:19:09;1.23;;;1.00;;
54993;SDS011;40891;47.242;8.648;2024-01-06T04:21:36;1.20;;;1.10;;
54993;SDS011;40891;47.242;8.648;2024-01-06T04:24:02;1.77;;;1.40;;
54993;SDS011;40891;47.242;8.648;2024-01-06T04:26:27;1.40;;;1.30;;
54993;SDS011;40891;47.242;8.648;2024-01-06T04:28:52;2.30;;;1.23;;
54993;SDS011;40891;47.242;8.648;2024-01-06T04:31:17;2.10;;;1.10;;
54993;SDS011;40891;47.242;8.648;2024-01-06T04:33:43;1.27;;;1.10;;
54993;SDS011;40891;47.242;8.648;2024-01-06T04:36:08;1.30;;;1.20;;
54993;SDS011;40891;47.242;8.648;2024-01-06T04:38:33;1.60;;;1.30;;
54993;SDS011;40891;47.242;8.648;2024-01-06T04:40:59;2.07;;;1.30;;
54993;SDS011;40891;47.242;8.648;2024-01-06T04:43:24;2.27;;;1.37;;
54993;SDS011;40891;47.242;8.648;2024-01-06T04:45:49;1.87;;;1.30;;
54993;SDS011;40891;47.242;8.648;2024-01-06T04:48:15;1.70;;;1.03;;
54993;SDS011;40891;47.242;8.648;2024-01-06T04:50:40;1.53;;;1.40;;
54993;SDS011;40891;47.242;8.648;2024-01-06T04:53:06;1.40;;;1.20;;
54993;SDS011;40891;47.242;8.648;2024-01-06T04:55:31;1.47;;;1.10;;
54993;SDS011;40891;47.242;8.648;2024-01-06T04:57:56;1.80;;;1.30;;
54993;SDS011;40891;47.242;8.648;2024-01-06T05:00:22;0.87;;;0.87;;
54993;SDS011;40891;47.242;8.648;2024-01-06T05:02:47;2.10;;;1.30;;
54993;SDS011;40891;47.242;8.648;2024-01-06T05:05:12;1.67;;;1.10;;
54993;SDS011;40891;47.242;8.648;2024-01-06T05:07:37;1.23;;;1.10;;
54993;SDS011;40891;47.242;8.648;2024-01-06T05:10:03;1.43;;;1.10;;
54993;SDS011;40891;47.242;8.648;2024-01-06T05:12:28;2.70;;;1.50;;
54993;SDS011;40891;47.242;8.648;2024-01-06T05:14:54;1.60;;;1.33;;
54993;SDS011;40891;47.242;8.648;2024-01-06T05:17:19;2.37;;;1.63;;
54993;SDS011;40891;47.242;8.648;2024-01-06T05:19:44;2.43;;;1.27;;
54993;SDS011;40891;47.242;8.648;2024-01-06T05:22:09;2.13;;;1.30;;
54993;SDS011;40891;47.242;8.648;2024-01-06T05:24:35;1.73;;;1.20;;
54993;SDS011;40891;47.242;8.648;2024-01-06T05:27:01;1.67;;;1.20;;
54993;SDS011;40891;47.242;8.648;2024-01-06T05:29:26;1.20;;;1.00;;
54993;SDS011;40891;47.242;8.648;2024-01-06T05:31:52;1.30;;;1.00;;
54993;SDS011;40891;47.242;8.648;2024-01-06T05:34:17;1.77;;;1.30;;
54993;SDS011;40891;47.242;8.648;2024-01-06T05:36:43;2.03;;;1.50;;
54993;SDS011;40891;47.242;8.648;2024-01-06T05:39:08;2.00;;;1.50;;
54993;SDS011;40891;47.242;8.648;2024-01-06T05:41:39;1.37;;;1.27;;
54993;SDS011;40891;47.242;8.648;2024-01-06T05:44:05;2.90;;;1.50;;
54993;SDS011;40891;47.242;8.648;2024-01-06T05:46:31;2.77;;;1.70;;
54993;SDS011;40891;47.242;8.648;2024-01-06T05:48:56;1.60;;;1.30;;
54993;SDS011;40891;47.242;8.648;2024-01-06T05:51:22;1.80;;;1.50;;
54993;SDS011;40891;47.242;8.648;2024-01-06T05:53:48;2.17;;;1.50;;
54993;SDS011;40891;47.242;8.648;2024-01-06T05:56:26;1.70;;;1.30;;
54993;SDS011;40891;47.242;8.648;2024-01-06T05:58:52;1.70;;;1.40;;
54993;SDS011;40891;47.242;8.648;2024-01-06T06:01:18;2.13;;;1.67;;
54993;SDS011;40891;47.242;8.648;2024-01-06T06:03:44;1.90;;;1.60;;
54993;SDS011;40891;47.242;8.648;2024-01-06T06:06:10;1.90;;;1.60;;
54993;SDS011;40891;47.242;8.648;2024-01-06T06:08:35;1.70;;;1.43;;
54993;SDS011;40891;47.242;8.648;2024-01-06T06:11:01;1.73;;;1.63;;
54993;SDS011;40891;47.242;8.648;2024-01-06T06:13:29;2.33;;;1.67;;
54993;SDS011;40891;47.242;8.648;2024-01-06T06:15:54;2.70;;;1.40;;
54993;SDS011;40891;47.242;8.648;2024-01-06T06:18:20;2.50;;;1.83;;
54993;SDS011;40891;47.242;8.648;2024-01-06T06:20:45;1.83;;;1.60;;
54993;SDS011;40891;47.242;8.648;2024-01-06T06:23:10;1.53;;;1.40;;
54993;SDS011;40891;47.242;8.648;2024-01-06T06:25:37;2.03;;;1.50;;
54993;SDS011;40891;47.242;8.648;2024-01-06T06:28:03;2.13;;;1.57;;
54993;SDS011;40891;47.242;8.648;2024-01-06T06:30:29;2.50;;;1.60;;
54993;SDS011;40891;47.242;8.648;2024-01-06T06:32:54;2.63;;;1.87;;
54993;SDS011;40891;47.242;8.648;2024-01-06T06:35:19;1.97;;;1.50;;
54993;SDS011;40891;47.242;8.648;2024-01-06T06:37:45;2.67;;;1.80;;
54993;SDS011;40891;47.242;8.648;2024-01-06T06:40:10;2.70;;;1.90;;
54993;SDS011;40891;47.242;8.648;2024-01-06T06:42:36;2.33;;;1.70;;
54993;SDS011;40891;47.242;8.648;2024-01-06T06:45:01;2.60;;;1.93;;
54993;SDS011;40891;47.242;8.648;2024-01-06T06:47:26;3.00;;;2.10;;
54993;SDS011;40891;47.242;8.648;2024-01-06T06:49:51;2.73;;;2.30;;
54993;SDS011;40891;47.242;8.648;2024-01-06T06:52:17;2.73;;;2.23;;
54993;SDS011;40891;47.242;8.648;2024-01-06T06:54:42;2.70;;;2.00;;
54993;SDS011;40891;47.242;8.648;2024-01-06T06:57:07;2.60;;;2.00;;
54993;SDS011;40891;47.242;8.648;2024-01-06T06:59:32;3.00;;;2.47;;
54993;SDS011;40891;47.242;8.648;2024-01-06T07:01:58;4.10;;;2.40;;
54993;SDS011;40891;47.242;8.648;2024-01-06T07:04:23;3.43;;;2.53;;
54993;SDS011;40891;47.242;8.648;2024-01-06T07:06:51;3.30;;;2.50;;
54993;SDS011;40891;47.242;8.648;2024-01-06T07:09:16;4.20;;;2.13;;
54993;SDS011;40891;47.242;8.648;2024-01-06T07:11:41;2.90;;;1.93;;
54993;SDS011;40891;47.242;8.648;2024-01-06T07:14:06;3.90;;;2.50;;
54993;SDS011;40891;47.242;8.648;2024-01-06T07:16:34;3.10;;;2.20;;
54993;SDS011;40891;47.242;8.648;2024-01-06T07:18:59;2.67;;;2.20;;
54993;SDS011;40891;47.242;8.648;2024-01-06T07:21:25;2.40;;;1.70;;
54993;SDS011;40891;47.242;8.648;2024-01-06T07:23:50;4.00;;;2.30;;
54993;SDS011;40891;47.242;8.648;2024-01-06T07:26:15;4.00;;;2.80;;
54993;SDS011;40891;47.242;8.648;2024-01-06T07:28:41;3.83;;;2.70;;
54993;SDS011;40891;47.242;8.648;2024-01-06T07:31:06;4.20;;;3.23;;
54993;SDS011;40891;47.242;8.648;2024-01-06T07:33:31;4.47;;;3.03;;
54993;SDS011;40891;47.242;8.648;2024-01-06T07:35:56;2.93;;;2.63;;
54993;SDS011;40891;47.242;8.648;2024-01-06T07:38:22;3.23;;;2.23;;
54993;SDS011;40891;47.242;8.648;2024-01-06T07:40:47;5.57;;;2.73;;
54993;SDS011;40891;47.242;8.648;2024-01-06T07:43:12;3.23;;;2.60;;
54993;SDS011;40891;47.242;8.648;2024-01-06T07:45:37;3.63;;;2.53;;
54993;SDS011;40891;47.242;8.648;2024-01-06T07:48:03;3.47;;;2.50;;
54993;SDS011;40891;47.242;8.648;2024-01-06T07:50:28;3.60;;;2.40;;
54993;SDS011;40891;47.242;8.648;2024-01-06T07:52:54;3.30;;;2.20;;
54993;SDS011;40891;47.242;8.648;2024-01-06T07:55:19;2.90;;;2.30;;
54993;SDS011;40891;47.242;8.648;2024-01-06T07:57:45;3.70;;;2.80;;
54993;SDS011;40891;47.242;8.648;2024-01-06T08:00:10;5.53;;;4.00;;
54993;SDS011;40891;47.242;8.648;2024-01-06T08:02:39;3.30;;;2.60;;
54993;SDS011;40891;47.242;8.648;2024-01-06T08:05:05;3.17;;;2.60;;
54993;SDS011;40891;47.242;8.648;2024-01-06T08:07:31;3.27;;;2.27;;
54993;SDS011;40891;47.242;8.648;2024-01-06T08:09:57;8.00;;;4.90;;
54993;SDS011;40891;47.242;8.648;2024-01-06T08:12:22;7.53;;;3.13;;
54993;SDS011;40891;47.242;8.648;2024-01-06T08:14:47;4.90;;;4.37;;
54993;SDS011;40891;47.242;8.648;2024-01-06T08:17:13;3.80;;;2.97;;
54993;SDS011;40891;47.242;8.648;2024-01-06T08:19:38;3.40;;;2.53;;
54993;SDS011;40891;47.242;8.648;2024-01-06T08:22:03;3.63;;;2.73;;
54993;SDS011;40891;47.242;8.648;2024-01-06T08:24:31;4.03;;;2.27;;
54993;SDS011;40891;47.242;8.648;2024-01-06T08:26:57;3.90;;;2.33;;
54993;SDS011;40891;47.242;8.648;2024-01-06T08:29:22;3.13;;;2.37;;
54993;SDS011;40891;47.242;8.648;2024-01-06T08:31:47;3.63;;;2.67;;
54993;SDS011;40891;47.242;8.648;2024-01-06T08:34:15;3.20;;;2.70;;
54993;SDS011;40891;47.242;8.648;2024-01-06T08:36:40;3.43;;;2.47;;
54993;SDS011;40891;47.242;8.648;2024-01-06T08:39:06;2.90;;;2.37;;
54993;SDS011;40891;47.242;8.648;2024-01-06T08:41:33;12.27;;;4.23;;
54993;SDS011;40891;47.242;8.648;2024-01-06T08:43:59;8.90;;;4.53;;
54993;SDS011;40891;47.242;8.648;2024-01-06T08:46:24;7.90;;;4.20;;
54993;SDS011;40891;47.242;8.648;2024-01-06T08:48:50;8.23;;;4.60;;
54993;SDS011;40891;47.242;8.648;2024-01-06T08:51:15;9.27;;;5.07;;
54993;SDS011;40891;47.242;8.648;2024-01-06T08:53:40;4.80;;;3.20;;
54993;SDS011;40891;47.242;8.648;2024-01-06T08:56:06;4.20;;;2.70;;
54993;SDS011;40891;47.242;8.648;2024-01-06T08:58:31;4.90;;;3.43;;
54993;SDS011;40891;47.242;8.648;2024-01-06T09:00:56;3.10;;;2.40;;
54993;SDS011;40891;47.242;8.648;2024-01-06T09:03:21;3.90;;;2.53;;
54993;SDS011;40891;47.242;8.648;2024-01-06T09:05:51;4.53;;;2.60;;
54993;SDS011;40891;47.242;8.648;2024-01-06T09:08:17;2.73;;;2.23;;
54993;SDS011;40891;47.242;8.648;2024-01-06T09:10:43;2.20;;;1.80;;
54993;SDS011;40891;47.242;8.648;2024-01-06T09:13:08;2.90;;;2.10;;
54993;SDS011;40891;47.242;8.648;2024-01-06T09:15:34;1.90;;;1.60;;
54993;SDS011;40891;47.242;8.648;2024-01-06T09:17:59;2.37;;;1.70;;
54993;SDS011;40891;47.242;8.648;2024-01-06T09:20:25;4.97;;;1.60;;
54993;SDS011;40891;47.242;8.648;2024-01-06T09:22:52;2.10;;;1.40;;
54993;SDS011;40891;47.242;8.648;2024-01-06T09:25:17;1.20;;;1.10;;
54993;SDS011;40891;47.242;8.648;2024-01-06T09:27:43;1.30;;;1.20;;
54993;SDS011;40891;47.242;8.648;2024-01-06T09:30:08;2.17;;;1.57;;
54993;SDS011;40891;47.242;8.648;2024-01-06T09:32:33;2.67;;;1.90;;
54993;SDS011;40891;47.242;8.648;2024-01-06T09:34:59;2.10;;;1.90;;
54993;SDS011;40891;47.242;8.648;2024-01-06T09:37:24;2.70;;;2.00;;
54993;SDS011;40891;47.242;8.648;2024-01-06T09:39:49;2.43;;;2.10;;
54993;SDS011;40891;47.242;8.648;2024-01-06T09:42:15;2.67;;;1.77;;
54993;SDS011;40891;47.242;8.648;2024-01-06T09:44:41;2.13;;;1.77;;
54993;SDS011;40891;47.242;8.648;2024-01-06T09:47:06;3.03;;;1.90;;
54993;SDS011;40891;47.242;8.648;2024-01-06T09:49:36;2.97;;;1.80;;
54993;SDS011;40891;47.242;8.648;2024-01-06T09:52:04;2.63;;;2.00;;
54993;SDS011;40891;47.242;8.648;2024-01-06T09:54:38;3.17;;;2.47;;
54993;SDS011;40891;47.242;8.648;2024-01-06T09:57:09;2.40;;;2.10;;
54993;SDS011;40891;47.242;8.648;2024-01-06T09:59:34;2.80;;;1.90;;
54993;SDS011;40891;47.242;8.648;2024-01-06T10:02:01;4.03;;;1.63;;
54993;SDS011;40891;47.242;8.648;2024-01-06T10:04:29;2.27;;;1.60;;
54993;SDS011;40891;47.242;8.648;2024-01-06T10:06:54;2.50;;;1.60;;
54993;SDS011;40891;47.242;8.648;2024-01-06T10:09:25;2.27;;;1.73;;
54993;SDS011;40891;47.242;8.648;2024-01-06T10:11:54;2.87;;;2.00;;
54993;SDS011;40891;47.242;8.648;2024-01-06T10:14:20;4.43;;;3.10;;
54993;SDS011;40891;47.242;8.648;2024-01-06T10:16:46;4.80;;;2.63;;
54993;SDS011;40891;47.242;8.648;2024-01-06T10:19:14;4.03;;;2.23;;
54993;SDS011;40891;47.242;8.648;2024-01-06T10:21:39;3.53;;;1.93;;
54993;SDS011;40891;47.242;8.648;2024-01-06T10:24:06;3.03;;;1.37;;
54993;SDS011;40891;47.242;8.648;2024-01-06T10:26:33;1.90;;;1.13;;
54993;SDS011;40891;47.242;8.648;2024-01-06T10:28:58;2.33;;;1.37;;
54993;SDS011;40891;47.242;8.648;2024-01-06T10:31:25;3.93;;;1.27;;
54993;SDS011;40891;47.242;8.648;2024-01-06T10:33:50;2.40;;;1.40;;
54993;SDS011;40891;47.242;8.648;2024-01-06T10:36:16;2.90;;;1.67;;
54993;SDS011;40891;47.242;8.648;2024-01-06T10:38:42;2.97;;;1.33;;
54993;SDS011;40891;47.242;8.648;2024-01-06T10:41:07;3.03;;;1.77;;
54993;SDS011;40891;47.242;8.648;2024-01-06T10:43:36;3.97;;;1.50;;
54993;SDS011;40891;47.242;8.648;2024-01-06T10:46:05;6.40;;;1.43;;
54993;SDS011;40891;47.242;8.648;2024-01-06T10:48:35;3.83;;;1.60;;
54993;SDS011;40891;47.242;8.648;2024-01-06T10:51:03;2.37;;;1.60;;
54993;SDS011;40891;47.242;8.648;2024-01-06T10:53:32;2.03;;;1.50;;
54993;SDS011;40891;47.242;8.648;2024-01-06T10:55:58;3.50;;;1.70;;
54993;SDS011;40891;47.242;8.648;2024-01-06T10:58:24;4.57;;;1.70;;
54993;SDS011;40891;47.242;8.648;2024-01-06T11:00:49;3.00;;;1.80;;
54993;SDS011;40891;47.242;8.648;2024-01-06T11:03:15;2.63;;;1.47;;
54993;SDS011;40891;47.242;8.648;2024-01-06T11:05:42;2.37;;;1.40;;
54993;SDS011;40891;47.242;8.648;2024-01-06T11:08:08;4.47;;;1.40;;
54993;SDS011;40891;47.242;8.648;2024-01-06T11:10:35;3.47;;;1.30;;
54993;SDS011;40891;47.242;8.648;2024-01-06T11:13:05;2.50;;;1.10;;
54993;SDS011;40891;47.242;8.648;2024-01-06T11:15:40;1.53;;;1.30;;
54993;SDS011;40891;47.242;8.648;2024-01-06T11:18:06;1.70;;;1.10;;
54993;SDS011;40891;47.242;8.648;2024-01-06T11:20:31;1.93;;;1.40;;
54993;SDS011;40891;47.242;8.648;2024-01-06T11:23:17;6.87;;;1.63;;
54993;SDS011;40891;47.242;8.648;2024-01-06T11:25:43;5.20;;;1.50;;
54993;SDS011;40891;47.242;8.648;2024-01-06T11:28:09;2.17;;;1.37;;
54993;SDS011;40891;47.242;8.648;2024-01-06T11:30:37;2.53;;;1.10;;
54993;SDS011;40891;47.242;8.648;2024-01-06T11:33:03;3.30;;;1.13;;
54993;SDS011;40891;47.242;8.648;2024-01-06T11:35:29;2.43;;;1.30;;
54993;SDS011;40891;47.242;8.648;2024-01-06T11:37:56;2.53;;;1.50;;
54993;SDS011;40891;47.242;8.648;2024-01-06T11:42:58;2.63;;;1.20;;
54993;SDS011;40891;47.242;8.648;2024-01-06T11:45:24;4.40;;;1.60;;
54993;SDS011;40891;47.242;8.648;2024-01-06T11:47:50;2.63;;;1.30;;
54993;SDS011;40891;47.242;8.648;2024-01-06T11:50:20;1.53;;;1.30;;
54993;SDS011;40891;47.242;8.648;2024-01-06T11:52:46;1.40;;;1.07;;
54993;SDS011;40891;47.242;8.648;2024-01-06T11:55:11;3.40;;;1.53;;
54993;SDS011;40891;47.242;8.648;2024-01-06T11:57:37;2.10;;;1.30;;
54993;SDS011;40891;47.242;8.648;2024-01-06T12:00:03;2.17;;;1.40;;
54993;SDS011;40891;47.242;8.648;2024-01-06T12:02:29;3.53;;;1.27;;
54993;SDS011;40891;47.242;8.648;2024-01-06T12:04:54;3.00;;;1.30;;
54993;SDS011;40891;47.242;8.648;2024-01-06T12:07:20;2.03;;;1.10;;
54993;SDS011;40891;47.242;8.648;2024-01-06T12:09:50;2.80;;;1.20;;
54993;SDS011;40891;47.242;8.648;2024-01-06T12:12:25;3.83;;;1.70;;
54993;SDS011;40891;47.242;8.648;2024-01-06T12:14:50;3.70;;;1.10;;
54993;SDS011;40891;47.242;8.648;2024-01-06T12:17:16;4.70;;;1.20;;
54993;SDS011;40891;47.242;8.648;2024-01-06T12:19:41;2.60;;;1.30;;
54993;SDS011;40891;47.242;8.648;2024-01-06T12:24:36;2.20;;;1.10;;
54993;SDS011;40891;47.242;8.648;2024-01-06T12:27:01;5.83;;;1.60;;
54993;SDS011;40891;47.242;8.648;2024-01-06T12:29:27;2.70;;;1.30;;
54993;SDS011;40891;47.242;8.648;2024-01-06T12:31:56;3.13;;;1.60;;
54993;SDS011;40891;47.242;8.648;2024-01-06T12:34:24;4.20;;;1.40;;
54993;SDS011;40891;47.242;8.648;2024-01-06T12:36:50;2.33;;;1.50;;
54993;SDS011;40891;47.242;8.648;2024-01-06T12:39:17;2.40;;;1.40;;
54993;SDS011;40891;47.242;8.648;2024-01-06T12:41:43;2.43;;;1.13;;
54993;SDS011;40891;47.242;8.648;2024-01-06T12:44:09;4.03;;;1.37;;
54993;SDS011;40891;47.242;8.648;2024-01-06T12:46:35;1.97;;;1.20;;
54993;SDS011;40891;47.242;8.648;2024-01-06T12:49:01;3.37;;;1.37;;
54993;SDS011;40891;47.242;8.648;2024-01-06T12:51:27;3.33;;;1.30;;
54993;SDS011;40891;47.242;8.648;2024-01-06T12:53:52;4.07;;;1.20;;
54993;SDS011;40891;47.242;8.648;2024-01-06T12:56:17;1.70;;;1.20;;
54993;SDS011;40891;47.242;8.648;2024-01-06T12:58:43;3.83;;;1.17;;
54993;SDS011;40891;47.242;8.648;2024-01-06T13:01:09;1.83;;;1.17;;
54993;SDS011;40891;47.242;8.648;2024-01-06T13:03:34;2.37;;;1.37;;
54993;SDS011;40891;47.242;8.648;2024-01-06T13:06:00;2.33;;;1.30;;
54993;SDS011;40891;47.242;8.648;2024-01-06T13:08:26;3.07;;;1.20;;
54993;SDS011;40891;47.242;8.648;2024-01-06T13:10:52;1.97;;;1.60;;
54993;SDS011;40891;47.242;8.648;2024-01-06T13:13:18;2.93;;;1.37;;
54993;SDS011;40891;47.242;8.648;2024-01-06T13:15:43;3.43;;;1.20;;
54993;SDS011;40891;47.242;8.648;2024-01-06T13:18:09;3.77;;;1.27;;
54993;SDS011;40891;47.242;8.648;2024-01-06T13:20:35;2.30;;;1.33;;
54993;SDS011;40891;47.242;8.648;2024-01-06T13:23:02;4.00;;;1.27;;
54993;SDS011;40891;47.242;8.648;2024-01-06T13:25:31;2.33;;;1.37;;
54993;SDS011;40891;47.242;8.648;2024-01-06T13:27:57;2.43;;;1.40;;
54993;SDS011;40891;47.242;8.648;2024-01-06T13:30:22;7.30;;;1.77;;
54993;SDS011;40891;47.242;8.648;2024-01-06T13:32:47;4.37;;;1.57;;
54993;SDS011;40891;47.242;8.648;2024-01-06T13:35:15;1.83;;;1.10;;
54993;SDS011;40891;47.242;8.648;2024-01-06T13:37:40;5.53;;;1.30;;
54993;SDS011;40891;47.242;8.648;2024-01-06T13:40:07;3.53;;;1.30;;
54993;SDS011;40891;47.242;8.648;2024-01-06T13:42:33;6.70;;;1.40;;
54993;SDS011;40891;47.242;8.648;2024-01-06T13:44:59;2.93;;;1.00;;
54993;SDS011;40891;47.242;8.648;2024-01-06T13:47:28;1.40;;;0.80;;
54993;SDS011;40891;47.242;8.648;2024-01-06T13:49:54;2.67;;;1.33;;
54993;SDS011;40891;47.242;8.648;2024-01-06T13:52:21;3.10;;;1.30;;
54993;SDS011;40891;47.242;8.648;2024-01-06T13:54:47;2.87;;;1.20;;
54993;SDS011;40891;47.242;8.648;2024-01-06T13:57:12;3.03;;;1.17;;
54993;SDS011;40891;47.242;8.648;2024-01-06T13:59:37;3.53;;;1.27;;
54993;SDS011;40891;47.242;8.648;2024-01-06T14:02:07;2.90;;;1.47;;
54993;SDS011;40891;47.242;8.648;2024-01-06T14:04:33;2.10;;;1.60;;
54993;SDS011;40891;47.242;8.648;2024-01-06T14:06:59;5.53;;;1.37;;
54993;SDS011;40891;47.242;8.648;2024-01-06T14:09:26;3.30;;;1.60;;
54993;SDS011;40891;47.242;8.648;2024-01-06T14:11:52;3.07;;;1.40;;
54993;SDS011;40891;47.242;8.648;2024-01-06T14:14:19;3.80;;;1.83;;
54993;SDS011;40891;47.242;8.648;2024-01-06T14:16:45;3.10;;;1.70;;
54993;SDS011;40891;47.242;8.648;2024-01-06T14:19:11;2.90;;;1.70;;
54993;SDS011;40891;47.242;8.648;2024-01-06T14:21:37;4.23;;;1.70;;
54993;SDS011;40891;47.242;8.648;2024-01-06T14:24:02;3.27;;;1.80;;
54993;SDS011;40891;47.242;8.648;2024-01-06T14:26:27;4.73;;;1.97;;
54993;SDS011;40891;47.242;8.648;2024-01-06T14:28:53;2.97;;;1.27;;
54993;SDS011;40891;47.242;8.648;2024-01-06T14:31:18;6.07;;;1.60;;
54993;SDS011;40891;47.242;8.648;2024-01-06T14:33:43;4.90;;;1.73;;
54993;SDS011;40891;47.242;8.648;2024-01-06T14:36:08;3.17;;;1.50;;
54993;SDS011;40891;47.242;8.648;2024-01-06T14:38:34;3.50;;;1.50;;
54993;SDS011;40891;47.242;8.648;2024-01-06T14:41:00;3.20;;;1.80;;
54993;SDS011;40891;47.242;8.648;2024-01-06T14:43:25;3.97;;;1.57;;
54993;SDS011;40891;47.242;8.648;2024-01-06T14:45:50;3.90;;;1.90;;